Monument Beach, Massachusetts
Current Conditions -  °F | °C
As of 1:35 AM on Monday 26 Jan 2015 (Local Time) from KFMH Reporting Station
Overcast Overcast  
Wind Chill: 13°   Ceiling: 13000
Heat Index: 23°   Visibility: 10mi
Dew Point:   Wind: 9mph
Humidity: 50%   Direction: 20°NNE
Pressure: 30.04"   Gusts: 17mph
Location:  41.72°N, 70.61°W
Report Text: KFMH 260635Z AUTO 02008G15KT 340V040 10SM BKN130 OVC150 M05/M14 A3004 RMK AO2
Loading
Personal Weather Stations






























Interactive Weather Map New forecast layout! Learn more

10-Day Weather Forecast

Advertisements
Track Severe Weather on mobile